Impacts TAF Board
For situational awareness. Not to be used for flight planning purposes.
IDs:

KSFO - San Francisco Intl, CA, US

Issued at 2103 UTC 21 Sep 2021
Updated at 2248 UTC 21 Sep 2021
Potential Impact None Slight Moderate High
Time2156Z 21/23Z 22/00Z 22/01Z 22/02Z 22/03Z 22/04Z 22/05Z 22/06Z 22/07Z 22/08Z 22/09Z 22/10Z 22/11Z>>
Type OBS PRVL PRVL PRVL PRVL PRVL PRVL PRVL PRVL PRVL PRVL PRVL PRVL PRVL
VIS 10 6 6 6 6 >6 >6 >6 >6 >6 >6 >6 >6 >6
CIG -- -- -- -- -- -- -- -- -- -- -- -- -- --
Cover FEW FEW FEW FEW FEW FEW FEW FEW FEW FEW FEW FEW FEW FEW
FltCat VFR VFR VFR VFR VFR VFR VFR VFR VFR VFR VFR VFR VFR VFR
WX -- HZ HZ HZ HZ -- -- -- -- -- -- -- -- --
WDir 310 290 290 290 290 300 300 300 300 300 300 300 VRB VRB
WSpd 11 12 12 12 12 8 8 8 8 8 8 8 5 5
WGst -- -- -- -- -- -- -- -- -- -- -- -- -- --
Raw TAF
KSFO 212103Z 2121/2224 35006KT P6SM FEW045 FEW200
  FM212200 29012KT 6SM HZ FEW200
  FM220300 30008KT P6SM FEW200
  FM221000 VRB05KT P6SM FEW011
  FM222100 29012KT P6SM FEW200


Raw METAR
KSFO 212156Z 31011KT 10SM FEW200 32/08 A3003 RMK AO2 SLP168 T03170083
KSFO 212056Z VRB05KT 10SM FEW200 27/17 A3004 RMK AO2 SLP173 T02720172 58011
KSFO 211956Z 00000KT 10SM FEW200 27/11 A3006 RMK AO2 SLP178 T02720106

METAR Board
Radar Display
Forecast Discussion
For situational awareness. Not to be used for flight planning purposes.